createdAt,value
2017-12-05T15:22:06.962Z,32
2017-12-05T15:23:20.614Z,24
2017-12-05T15:24:34.871Z,24
2017-12-05T15:25:48.911Z,20
2017-12-05T15:27:03.212Z,20
2017-12-05T15:28:16.824Z,20
2017-12-05T15:29:30.300Z,16
2017-12-05T15:30:44.482Z,16
2017-12-05T15:31:58.952Z,16
2017-12-05T15:33:13.452Z,16
2017-12-05T15:34:26.926Z,12
2017-12-05T15:35:40.561Z,12
2017-12-05T15:36:55.134Z,8
2017-12-05T15:38:11.596Z,8
2017-12-05T15:39:28.483Z,4
2017-12-05T15:40:44.193Z,8
2017-12-05T15:42:23.003Z,4
2017-12-05T15:48:03.638Z,0
2017-12-05T15:49:28.895Z,0
2017-12-05T15:51:00.532Z,4
2017-12-05T15:52:21.522Z,0
2017-12-05T15:53:41.041Z,0
2017-12-05T15:54:59.258Z,0
2017-12-05T15:56:15.525Z,0
2017-12-05T15:57:32.621Z,0
2017-12-05T15:58:49.117Z,0
2017-12-05T16:00:05.374Z,0
2017-12-05T16:01:22.829Z,0
2017-12-05T16:02:36.922Z,0
2017-12-05T16:04:23.436Z,0
2017-12-05T16:05:40.213Z,0
2017-12-05T16:06:55.756Z,0
2017-12-05T16:08:27.091Z,0
2017-12-05T16:09:41.160Z,0
2017-12-05T16:10:54.773Z,0
2017-12-05T16:12:09.429Z,0
2017-12-05T16:13:24.570Z,0
2017-12-05T16:14:54.600Z,0
2017-12-05T16:16:10.825Z,0
2017-12-05T16:17:46.227Z,0
2017-12-05T16:20:10.772Z,0
2017-12-05T16:26:47.193Z,0
2017-12-05T16:28:17.260Z,0
2017-12-05T16:29:33.146Z,0
2017-12-05T16:30:46.984Z,0
2017-12-05T16:32:01.779Z,0
2017-12-05T16:33:16.211Z,0
2017-12-05T16:34:31.192Z,0
2017-12-05T16:35:47.316Z,0
2017-12-05T16:37:16.597Z,0
2017-12-05T16:38:33.385Z,0
2017-12-05T16:39:50.243Z,0
2017-12-05T16:41:04.613Z,0
2017-12-05T16:44:31.289Z,0
2017-12-05T16:45:45.229Z,0
2017-12-05T16:46:59.290Z,0
2017-12-05T16:48:13.185Z,0
2017-12-05T16:49:26.577Z,0
2017-12-05T16:50:40.218Z,0
2017-12-05T16:51:54.425Z,0
2017-12-05T16:53:08.699Z,0
2017-12-05T16:54:22.389Z,0
2017-12-05T16:55:37.312Z,0
2017-12-05T16:56:50.712Z,0
2017-12-05T16:58:06.970Z,0
2017-12-05T16:59:30.159Z,0
2017-12-05T17:00:50.676Z,0
2017-12-05T17:02:09.984Z,0
2017-12-05T17:03:24.374Z,0
2017-12-05T17:04:39.834Z,0
2017-12-05T17:05:59.058Z,0
2017-12-05T17:07:19.969Z,0
2017-12-05T17:11:41.576Z,0
2017-12-05T17:15:15.067Z,0
2017-12-05T17:17:03.902Z,0
2017-12-05T17:19:12.846Z,0
2017-12-05T17:20:27.840Z,0
2017-12-05T17:21:42.877Z,0
2017-12-05T17:23:01.053Z,0
2017-12-05T17:25:23.900Z,0
2017-12-05T17:27:07.933Z,0
2017-12-05T17:29:32.355Z,0
2017-12-05T17:30:46.864Z,0
2017-12-05T17:32:00.970Z,0
2017-12-05T17:33:15.408Z,0
2017-12-05T17:34:29.812Z,0
2017-12-05T17:36:14.155Z,0
2017-12-05T17:37:28.248Z,0
2017-12-05T17:38:42.020Z,0
2017-12-05T17:39:56.856Z,0
2017-12-05T17:41:25.468Z,0
2017-12-05T17:42:39.597Z,0
2017-12-05T17:43:53.075Z,0
2017-12-05T17:45:07.577Z,0
2017-12-05T17:47:05.963Z,0
2017-12-05T17:48:21.088Z,0
2017-12-05T17:49:37.102Z,0
2017-12-05T17:50:52.222Z,0
2017-12-05T17:52:08.125Z,0
2017-12-05T17:53:23.637Z,0
2017-12-05T17:54:47.768Z,0
2017-12-05T17:56:30.956Z,0
2017-12-05T18:00:05.389Z,0
2017-12-05T18:02:09.001Z,0
2017-12-05T18:03:51.336Z,0
2017-12-05T18:05:16.899Z,0
2017-12-05T18:06:38.036Z,0
2017-12-05T18:07:54.276Z,0
2017-12-05T18:09:09.965Z,0
2017-12-05T18:10:24.264Z,0
2017-12-05T18:11:57.516Z,0
2017-12-05T18:13:23.496Z,0
2017-12-05T18:14:37.475Z,0
2017-12-05T18:15:52.009Z,0
2017-12-05T18:17:05.744Z,0
2017-12-05T18:18:20.851Z,0
2017-12-05T18:19:34.717Z,0
2017-12-05T18:20:48.475Z,0
2017-12-05T18:22:02.320Z,0
2017-12-05T18:23:15.670Z,0
2017-12-05T18:24:29.893Z,0
2017-12-05T18:25:45.136Z,0
2017-12-05T18:26:59.205Z,0
2017-12-05T18:28:13.724Z,0
2017-12-05T18:29:27.355Z,0
2017-12-05T18:30:42.746Z,0
2017-12-05T18:32:55.218Z,0
2017-12-05T18:34:12.539Z,0
2017-12-05T18:35:26.053Z,0
2017-12-05T18:36:53.400Z,0
2017-12-05T18:38:16.428Z,0
2017-12-05T18:39:33.143Z,0
2017-12-05T18:40:47.756Z,0
2017-12-05T18:42:01.811Z,0
2017-12-05T18:43:18.111Z,0
2017-12-05T18:44:32.522Z,0
2017-12-05T18:45:46.216Z,0
2017-12-05T18:47:00.486Z,0
2017-12-05T18:48:14.990Z,0
2017-12-05T18:49:28.913Z,0
2017-12-05T18:50:43.093Z,0
2017-12-05T18:51:58.373Z,0
2017-12-05T18:53:12.042Z,0
2017-12-05T18:54:28.408Z,0
2017-12-05T18:55:42.956Z,0
2017-12-05T18:56:57.893Z,0
2017-12-05T18:58:13.384Z,0
2017-12-05T18:59:27.736Z,0
2017-12-05T19:00:42.110Z,0
2017-12-05T19:01:56.938Z,0
2017-12-05T19:03:12.582Z,0
2017-12-05T19:04:28.135Z,0
2017-12-05T19:06:15.548Z,0
2017-12-05T19:07:29.416Z,0
2017-12-05T19:08:43.254Z,0
2017-12-05T19:09:57.446Z,0
2017-12-05T19:11:11.587Z,0
2017-12-05T19:12:40.010Z,0
2017-12-05T19:13:54.343Z,0
2017-12-05T19:15:08.331Z,0
2017-12-05T19:16:25.405Z,0
2017-12-05T19:17:39.590Z,0
2017-12-05T19:18:53.312Z,0
2017-12-05T19:20:07.182Z,0
2017-12-05T19:21:20.905Z,0
2017-12-05T19:22:49.878Z,0
2017-12-05T19:24:05.295Z,0
2017-12-05T19:25:20.623Z,0
2017-12-05T19:31:47.278Z,0
2017-12-05T19:33:03.845Z,0
2017-12-05T19:34:34.614Z,0
2017-12-05T19:35:48.829Z,0
2017-12-05T19:37:04.388Z,0
2017-12-05T19:38:19.065Z,0
2017-12-05T19:40:02.809Z,0
2017-12-05T19:41:16.521Z,0
2017-12-05T19:42:30.403Z,0
2017-12-05T19:43:46.921Z,0
2017-12-05T19:45:18.481Z,0
2017-12-05T19:46:42.904Z,0
2017-12-05T19:47:57.455Z,0
2017-12-05T19:49:12.280Z,0
2017-12-05T19:50:26.189Z,0
2017-12-05T19:51:45.496Z,0
2017-12-05T19:53:15.095Z,0
2017-12-05T19:57:39.619Z,0
2017-12-05T20:00:16.740Z,0
2017-12-05T20:01:47.515Z,0
2017-12-05T20:03:03.912Z,0
2017-12-05T20:04:17.881Z,0
2017-12-05T20:05:32.178Z,0
2017-12-05T20:06:47.815Z,0
2017-12-05T20:08:03.953Z,0
2017-12-05T20:09:17.851Z,0
2017-12-05T20:10:32.162Z,0
2017-12-05T20:14:00.171Z,0
2017-12-05T20:15:14.576Z,0
2017-12-05T20:16:28.661Z,0
2017-12-05T20:17:42.678Z,0
2017-12-05T20:18:56.898Z,0
2017-12-05T20:20:12.055Z,0
2017-12-05T20:21:25.769Z,0
2017-12-05T20:22:41.988Z,0
2017-12-05T20:24:10.609Z,0
2017-12-05T20:25:26.255Z,0
2017-12-05T20:26:40.583Z,0
2017-12-05T20:27:54.938Z,0
2017-12-05T20:29:10.852Z,0
2017-12-05T20:30:25.428Z,0
2017-12-05T20:31:39.616Z,0
2017-12-05T20:32:53.244Z,0
2017-12-05T20:34:22.639Z,0
2017-12-05T20:35:37.716Z,0
2017-12-05T20:36:57.196Z,0
2017-12-05T20:38:15.204Z,0
2017-12-05T20:39:29.289Z,0
2017-12-05T20:40:42.890Z,0
2017-12-05T20:41:57.683Z,0
2017-12-05T20:43:12.065Z,0
2017-12-05T20:44:40.901Z,0
2017-12-05T20:45:54.284Z,0
2017-12-05T20:47:07.954Z,0
2017-12-05T20:48:22.337Z,0
2017-12-05T20:49:36.953Z,0
2017-12-05T20:50:53.248Z,0
2017-12-05T20:52:07.123Z,0
2017-12-05T20:53:20.897Z,0
2017-12-05T20:55:04.326Z,0
2017-12-05T20:56:18.617Z,0
2017-12-05T20:57:32.563Z,0
2017-12-05T20:58:47.059Z,0
2017-12-05T21:00:03.352Z,0
2017-12-05T21:01:17.429Z,0
2017-12-05T21:02:31.673Z,0
2017-12-05T21:04:23.261Z,0
2017-12-05T21:05:55.944Z,0
2017-12-05T21:07:10.602Z,0
2017-12-05T21:08:25.302Z,0
2017-12-05T21:09:39.413Z,0
2017-12-05T21:10:55.015Z,0
2017-12-05T21:12:08.898Z,0
2017-12-05T21:13:23.044Z,0
2017-12-05T21:14:36.852Z,0
2017-12-05T21:15:51.908Z,0
2017-12-05T21:17:08.240Z,0
2017-12-05T21:18:25.344Z,0
2017-12-05T21:19:40.609Z,0
2017-12-05T21:22:59.734Z,0
2017-12-05T21:24:14.282Z,0
2017-12-05T21:25:28.946Z,0
2017-12-05T21:28:27.087Z,0
2017-12-05T21:29:41.031Z,0
2017-12-05T21:30:55.260Z,0
2017-12-05T21:32:23.857Z,0
2017-12-05T21:33:37.505Z,0
2017-12-05T21:34:52.746Z,0
2017-12-05T21:36:24.183Z,0
2017-12-05T21:40:37.008Z,0
2017-12-05T21:41:52.414Z,0
2017-12-05T21:43:06.578Z,0
2017-12-05T21:44:20.156Z,0
2017-12-05T21:47:47.730Z,0
2017-12-05T21:49:01.102Z,0
2017-12-05T21:50:14.746Z,0
2017-12-05T21:52:13.072Z,0
2017-12-05T21:53:29.876Z,0
2017-12-05T21:54:51.091Z,0
2017-12-05T21:56:04.905Z,0
2017-12-05T21:57:34.343Z,0
2017-12-05T21:58:49.038Z,0
2017-12-05T22:00:03.203Z,0
2017-12-05T22:01:16.826Z,0
2017-12-05T22:04:30.389Z,0
2017-12-05T22:05:44.020Z,0
2017-12-05T22:06:59.448Z,0
2017-12-05T22:08:14.062Z,0
2017-12-05T22:09:28.215Z,0
2017-12-05T22:10:42.617Z,0
2017-12-05T22:11:56.203Z,0
2017-12-05T22:13:24.987Z,0
2017-12-05T22:14:38.910Z,0
2017-12-05T22:15:52.877Z,0
2017-12-05T22:17:06.687Z,0
2017-12-05T22:18:20.116Z,0
2017-12-05T22:19:48.921Z,0
2017-12-05T22:21:02.650Z,0
2017-12-05T22:22:16.679Z,0
2017-12-05T22:25:14.039Z,0
2017-12-05T22:26:28.293Z,0
2017-12-05T22:27:42.412Z,0
2017-12-05T22:28:56.216Z,0
2017-12-05T22:30:10.349Z,0
2017-12-05T22:31:25.018Z,0
2017-12-05T22:32:38.616Z,0
2017-12-05T22:36:06.091Z,0
2017-12-05T22:37:19.480Z,0
2017-12-05T22:38:33.150Z,0
2017-12-05T22:40:01.785Z,0
2017-12-05T22:41:15.498Z,0
2017-12-05T22:42:28.948Z,0
2017-12-05T22:43:44.246Z,0
2017-12-05T22:44:59.211Z,0
2017-12-05T22:46:27.881Z,0
2017-12-05T22:47:43.003Z,0
2017-12-05T22:48:57.171Z,0
2017-12-05T22:50:11.117Z,0
2017-12-05T22:51:25.341Z,0
2017-12-05T22:52:39.509Z,0
2017-12-05T22:53:53.577Z,0
2017-12-05T22:55:10.126Z,0
2017-12-05T22:56:23.872Z,0
2017-12-05T22:57:37.864Z,0
2017-12-05T22:58:51.326Z,0
2017-12-05T23:02:18.875Z,0
2017-12-05T23:03:32.253Z,0
2017-12-05T23:04:45.623Z,0
2017-12-05T23:06:14.108Z,0
2017-12-05T23:07:27.929Z,0
2017-12-05T23:08:41.713Z,0
2017-12-05T23:09:55.325Z,0
2017-12-05T23:11:09.585Z,0
2017-12-05T23:12:23.808Z,0
2017-12-05T23:13:37.505Z,0
2017-12-05T23:14:51.620Z,0
2017-12-05T23:16:05.380Z,0
2017-12-05T23:17:19.994Z,0
2017-12-05T23:18:34.038Z,0
2017-12-05T23:19:47.830Z,0
2017-12-05T23:21:02.044Z,0
2017-12-05T23:22:16.211Z,0
2017-12-05T23:23:29.913Z,0
2017-12-05T23:24:43.335Z,0
2017-12-05T23:25:57.336Z,0
2017-12-05T23:27:10.927Z,0
2017-12-05T23:28:24.324Z,0
2017-12-05T23:29:37.840Z,0
2017-12-05T23:30:51.212Z,0
2017-12-05T23:32:05.193Z,0
2017-12-05T23:34:03.678Z,0
2017-12-05T23:35:17.053Z,0
2017-12-05T23:36:30.988Z,0
2017-12-05T23:37:44.491Z,0
2017-12-05T23:38:58.065Z,0
2017-12-05T23:40:12.353Z,0
2017-12-05T23:41:26.103Z,0
2017-12-05T23:42:41.160Z,0
2017-12-05T23:43:54.858Z,0
2017-12-05T23:45:23.494Z,0
2017-12-05T23:46:37.399Z,0
2017-12-05T23:47:51.675Z,0
2017-12-05T23:49:05.721Z,0
2017-12-05T23:50:19.354Z,0
2017-12-05T23:51:32.798Z,0
2017-12-05T23:52:47.426Z,0
2017-12-05T23:54:01.370Z,0
2017-12-05T23:55:15.442Z,0
2017-12-05T23:56:58.618Z,0
2017-12-05T23:58:12.464Z,0
2017-12-05T23:59:26.174Z,0
